createdAt,value
2017-05-31T00:00:17.889Z,97.42
2017-05-31T00:00:58.796Z,97.33
2017-05-31T00:01:39.689Z,97.42
2017-05-31T00:02:20.607Z,96.47
2017-05-31T00:03:01.568Z,96.08
2017-05-31T00:03:42.522Z,95.89
2017-05-31T00:04:23.570Z,95.21
2017-05-31T00:05:04.450Z,94.83
2017-05-31T00:05:45.331Z,94.45
2017-05-31T00:06:26.257Z,94.25
2017-05-31T00:07:07.149Z,94.25
2017-05-31T00:07:48.078Z,94.25
2017-05-31T00:08:28.977Z,94.73
2017-05-31T00:09:09.878Z,93.38
2017-05-31T00:09:50.770Z,93.29
2017-05-31T00:10:31.714Z,93.58
2017-05-31T00:11:12.616Z,92.91
2017-05-31T00:11:53.506Z,93.68
2017-05-31T00:12:34.389Z,93.38
2017-05-31T00:13:15.286Z,93.38
2017-05-31T00:13:56.189Z,93.48
2017-05-31T00:14:37.101Z,93.58
2017-05-31T00:15:17.987Z,93.29
2017-05-31T00:15:58.888Z,93.1
2017-05-31T00:16:39.819Z,92.91
2017-05-31T00:17:20.688Z,92.71
2017-05-31T00:18:01.564Z,92.91
2017-05-31T00:18:42.479Z,92.71
2017-05-31T00:19:23.373Z,92.71
2017-05-31T00:20:04.244Z,93
2017-05-31T00:20:45.117Z,92.52
2017-05-31T00:21:26.010Z,92.23
2017-05-31T00:22:06.912Z,92.29
2017-05-31T00:22:47.798Z,92.38
2017-05-31T00:23:28.680Z,92.47
2017-05-31T00:24:09.596Z,92.76
2017-05-31T00:24:50.496Z,92.96
2017-05-31T00:25:31.380Z,93.05
2017-05-31T00:26:12.279Z,92.86
2017-05-31T00:26:53.177Z,91.9
2017-05-31T00:27:34.067Z,92.57
2017-05-31T00:28:14.971Z,92.29
2017-05-31T00:28:55.864Z,92.76
2017-05-31T00:29:36.775Z,92.76
2017-05-31T00:30:17.690Z,93.44
2017-05-31T00:30:58.604Z,93.53
2017-05-31T00:31:39.518Z,92.81
2017-05-31T00:32:20.403Z,93.29
2017-05-31T00:33:01.388Z,92.96
2017-05-31T00:33:42.292Z,93.15
2017-05-31T00:34:23.182Z,93.24
2017-05-31T00:35:04.119Z,93.24
2017-05-31T00:35:45.023Z,93.15
2017-05-31T00:36:25.890Z,93.34
2017-05-31T00:37:06.761Z,93.44
2017-05-31T00:37:47.646Z,94.21
2017-05-31T00:38:28.547Z,93.34
2017-05-31T00:39:09.440Z,93.82
2017-05-31T00:39:50.354Z,94.01
2017-05-31T00:40:31.256Z,94.49
2017-05-31T00:41:12.166Z,94.3
2017-05-31T00:41:53.057Z,94.78
2017-05-31T00:42:33.982Z,94.3
2017-05-31T00:43:14.880Z,95.26
2017-05-31T00:43:55.765Z,95.26
2017-05-31T00:44:36.677Z,95.65
2017-05-31T00:45:17.563Z,95.07
2017-05-31T00:45:58.502Z,96.03
2017-05-31T00:46:39.383Z,96.7
2017-05-31T00:47:20.280Z,96.03
2017-05-31T00:48:01.180Z,96.51
2017-05-31T00:48:42.088Z,96.51
2017-05-31T00:49:23.015Z,96.42
2017-05-31T00:50:03.955Z,96.27
2017-05-31T00:50:44.865Z,95.94
2017-05-31T00:51:25.743Z,97.33
2017-05-31T00:52:06.629Z,97.19
2017-05-31T00:52:47.521Z,97.09
2017-05-31T00:53:28.410Z,97.76
2017-05-31T00:54:09.305Z,97.67
2017-05-31T00:54:50.202Z,98.24
2017-05-31T00:55:31.109Z,98.44
2017-05-31T00:56:11.989Z,98.05
2017-05-31T00:56:52.903Z,98.91
2017-05-31T00:57:33.797Z,97.96
2017-05-31T00:58:14.687Z,98.44
2017-05-31T00:58:55.586Z,99.11
2017-05-31T00:59:36.475Z,98.63
2017-05-31T01:00:17.378Z,98.53
2017-05-31T01:00:58.275Z,98.44
2017-05-31T01:01:39.188Z,99.01
2017-05-31T01:02:20.044Z,98.82
2017-05-31T01:03:00.944Z,98.82
2017-05-31T01:03:41.830Z,99.01
2017-05-31T01:04:22.717Z,99.3
2017-05-31T01:05:03.610Z,99.98
2017-05-31T01:05:44.516Z,99.49
2017-05-31T01:06:25.395Z,99.49
2017-05-31T01:07:06.301Z,99.49
2017-05-31T01:07:47.178Z,99.99
2017-05-31T01:08:28.099Z,99.68
2017-05-31T01:09:08.986Z,99.59
2017-05-31T01:09:49.868Z,99.59
2017-05-31T01:10:30.761Z,99.98
2017-05-31T01:11:11.657Z,99.68
2017-05-31T01:11:52.540Z,99.99
2017-05-31T01:12:33.439Z,99.99
2017-05-31T01:13:14.329Z,99.98
2017-05-31T01:13:55.214Z,99.98
2017-05-31T01:14:36.099Z,99.98
2017-05-31T01:15:17.006Z,99.99
2017-05-31T01:15:57.887Z,99.99
2017-05-31T01:16:38.772Z,99.98
2017-05-31T01:17:19.667Z,99.99
2017-05-31T01:18:00.556Z,99.99
2017-05-31T01:18:41.469Z,99.99
2017-05-31T01:19:22.357Z,99.78
2017-05-31T01:20:03.242Z,99.88
2017-05-31T01:20:44.153Z,99.99
2017-05-31T01:21:25.084Z,99.99
2017-05-31T01:22:05.989Z,99.98
2017-05-31T01:22:46.900Z,99.99
2017-05-31T01:23:27.813Z,99.21
2017-05-31T01:24:08.712Z,99.49
2017-05-31T01:24:49.655Z,99.99
2017-05-31T01:25:30.591Z,99.99
2017-05-31T01:26:11.466Z,99.99
2017-05-31T01:26:52.373Z,99.99
2017-05-31T01:27:33.266Z,99.99
2017-05-31T01:28:14.136Z,99.99
2017-05-31T01:28:55.015Z,99.99
2017-05-31T01:29:35.924Z,99.99
2017-05-31T01:30:16.807Z,99.99
2017-05-31T01:30:57.743Z,99.99
2017-05-31T01:31:38.669Z,99.99
2017-05-31T01:32:19.558Z,99.99
2017-05-31T01:33:00.450Z,99.99
2017-05-31T01:33:41.344Z,99.99
2017-05-31T01:34:22.249Z,99.99
2017-05-31T01:35:03.167Z,99.99
2017-05-31T01:35:44.062Z,99.99
2017-05-31T01:36:24.938Z,99.99
2017-05-31T01:37:05.826Z,99.99
2017-05-31T01:37:46.713Z,99.99
2017-05-31T01:38:27.606Z,99.99
2017-05-31T01:39:08.493Z,99.99
2017-05-31T01:39:49.408Z,99.99
2017-05-31T01:40:30.289Z,99.99
2017-05-31T01:41:11.172Z,99.99
2017-05-31T01:41:52.053Z,99.99
2017-05-31T01:42:32.941Z,99.99
2017-05-31T01:43:13.824Z,99.99
2017-05-31T01:43:54.745Z,99.99
2017-05-31T01:44:35.637Z,99.99
2017-05-31T01:45:16.525Z,99.99
2017-05-31T01:45:57.418Z,99.99
2017-05-31T01:46:38.331Z,99.99
2017-05-31T01:47:19.252Z,99.99
2017-05-31T01:48:00.137Z,99.99
2017-05-31T01:48:41.025Z,99.99
2017-05-31T01:49:21.931Z,99.99
2017-05-31T01:50:02.832Z,99.99
2017-05-31T01:50:43.730Z,99.99
2017-05-31T01:51:24.725Z,99.99
2017-05-31T01:52:05.615Z,99.99
2017-05-31T01:52:46.514Z,99.99
2017-05-31T01:53:27.404Z,99.99
2017-05-31T01:54:08.291Z,99.99
2017-05-31T01:54:49.190Z,99.99
2017-05-31T01:55:30.167Z,99.99
2017-05-31T01:56:11.074Z,99.99
2017-05-31T01:56:52.113Z,99.99
2017-05-31T01:57:33.015Z,99.99
2017-05-31T01:58:13.944Z,99.99
2017-05-31T01:58:54.860Z,99.99
2017-05-31T01:59:35.751Z,99.99
2017-05-31T02:00:16.655Z,99.99
2017-05-31T02:00:57.548Z,99.99
2017-05-31T02:01:38.446Z,99.99
2017-05-31T02:02:19.340Z,99.99
2017-05-31T02:03:00.237Z,99.99
2017-05-31T02:03:41.127Z,99.99
2017-05-31T02:04:22.083Z,99.99
2017-05-31T02:05:02.935Z,99.99
2017-05-31T02:05:43.839Z,99.99
2017-05-31T02:06:24.727Z,99.99
2017-05-31T02:07:05.616Z,99.99
2017-05-31T02:07:46.521Z,99.99
2017-05-31T02:08:27.422Z,99.63
2017-05-31T02:09:08.302Z,99.99
2017-05-31T02:09:49.199Z,99.99
2017-05-31T02:10:30.080Z,99.78
2017-05-31T02:11:10.983Z,99.78
2017-05-31T02:11:51.886Z,99.98
2017-05-31T02:12:32.783Z,99.59
2017-05-31T02:13:13.665Z,99.78
2017-05-31T02:13:54.549Z,99.88
2017-05-31T02:14:35.455Z,99.88
2017-05-31T02:15:16.347Z,99.4
2017-05-31T02:15:57.250Z,99.49
2017-05-31T02:16:38.135Z,98.82
2017-05-31T02:17:19.021Z,98.82
2017-05-31T02:17:59.935Z,98.82
2017-05-31T02:18:40.820Z,98.91
2017-05-31T02:19:21.732Z,98.91
2017-05-31T02:20:02.610Z,98.24
2017-05-31T02:20:43.505Z,98.72
2017-05-31T02:21:24.401Z,97.67
2017-05-31T02:22:05.300Z,97.76
2017-05-31T02:22:46.186Z,98.14
2017-05-31T02:23:27.082Z,98.91
2017-05-31T02:24:07.963Z,99.88
2017-05-31T02:24:48.839Z,98.82
2017-05-31T02:25:29.724Z,99.01
2017-05-31T02:26:10.627Z,98.82
2017-05-31T02:26:51.532Z,99.11
2017-05-31T02:27:32.428Z,99.3
2017-05-31T02:28:13.359Z,99.98
2017-05-31T02:28:54.269Z,99.21
2017-05-31T02:29:35.145Z,99.88
2017-05-31T02:30:16.039Z,99.49
2017-05-31T02:30:56.906Z,99.88
2017-05-31T02:31:37.800Z,99.99
2017-05-31T02:32:18.688Z,99.99
2017-05-31T02:32:59.581Z,99.99
2017-05-31T02:33:40.480Z,99.99
2017-05-31T02:34:21.363Z,99.99
2017-05-31T02:35:02.279Z,99.99
2017-05-31T02:35:43.177Z,99.99
2017-05-31T02:36:24.060Z,99.99
2017-05-31T02:37:04.951Z,99.99
2017-05-31T02:37:45.860Z,99.99
2017-05-31T02:38:26.736Z,99.49
2017-05-31T02:39:07.645Z,99.88
2017-05-31T02:39:48.529Z,99.99
2017-05-31T02:40:29.425Z,99.88
2017-05-31T02:42:28.272Z,99.68
2017-05-31T02:43:09.178Z,99.99
2017-05-31T02:43:50.073Z,99.99
2017-05-31T02:44:30.970Z,99.99
2017-05-31T02:45:11.859Z,99.99
2017-05-31T02:45:52.748Z,99.99
2017-05-31T02:46:33.645Z,99.99
2017-05-31T02:47:14.533Z,99.99
2017-05-31T02:47:55.426Z,99.99
2017-05-31T02:48:36.327Z,99.99
2017-05-31T02:49:17.216Z,99.99
2017-05-31T02:49:58.105Z,99.99
2017-05-31T02:50:39.001Z,99.99
2017-05-31T02:51:19.969Z,99.99
2017-05-31T02:52:00.876Z,99.99
2017-05-31T02:52:41.749Z,99.99
2017-05-31T02:53:22.641Z,99.99
2017-05-31T02:54:03.572Z,99.99
2017-05-31T02:54:44.465Z,99.99
2017-05-31T02:55:25.379Z,99.99
2017-05-31T02:56:06.350Z,99.99
2017-05-31T02:56:47.246Z,99.99
2017-05-31T02:57:28.132Z,99.99
2017-05-31T02:58:09.027Z,99.99
2017-05-31T02:58:49.915Z,99.99
2017-05-31T02:59:30.813Z,99.99
2017-05-31T03:00:11.699Z,99.99
2017-05-31T03:00:52.602Z,99.99
2017-05-31T03:01:33.488Z,99.99
2017-05-31T03:02:14.384Z,99.99
2017-05-31T03:02:55.266Z,99.99
2017-05-31T03:03:36.157Z,99.99
2017-05-31T03:04:17.034Z,99.99
2017-05-31T03:04:57.933Z,99.99
2017-05-31T03:05:38.831Z,99.99
2017-05-31T03:06:19.722Z,99.99
2017-05-31T03:07:00.667Z,99.99
2017-05-31T03:07:41.573Z,99.99
2017-05-31T03:08:22.471Z,99.99
2017-05-31T03:09:03.358Z,99.99
2017-05-31T03:09:44.247Z,99.99
2017-05-31T03:10:25.159Z,99.99
2017-05-31T03:11:06.041Z,99.99
2017-05-31T03:11:46.945Z,99.99
2017-05-31T03:12:27.835Z,99.99
2017-05-31T03:13:08.746Z,99.99
2017-05-31T03:13:49.649Z,99.99
2017-05-31T03:14:30.532Z,99.99
2017-05-31T03:15:11.416Z,99.99
2017-05-31T03:15:52.301Z,99.99
2017-05-31T03:16:33.204Z,99.99
2017-05-31T03:17:14.160Z,99.99
2017-05-31T03:17:55.048Z,99.99
2017-05-31T03:18:35.938Z,99.99
2017-05-31T03:19:16.844Z,99.99
2017-05-31T03:19:57.721Z,99.99
2017-05-31T03:20:38.609Z,99.99
2017-05-31T03:21:19.498Z,99.99
2017-05-31T03:22:00.395Z,99.99
2017-05-31T03:22:41.288Z,99.99
2017-05-31T03:23:22.178Z,99.99
2017-05-31T03:24:03.070Z,99.99
2017-05-31T03:24:43.965Z,99.99
2017-05-31T03:25:24.857Z,99.99
2017-05-31T03:26:05.747Z,99.99
2017-05-31T03:26:46.651Z,99.99
2017-05-31T03:27:27.544Z,99.99
2017-05-31T03:28:08.431Z,99.99
2017-05-31T03:28:49.330Z,99.99
2017-05-31T03:29:30.246Z,99.99
2017-05-31T03:30:11.150Z,99.99
2017-05-31T03:30:52.046Z,99.99
2017-05-31T03:31:32.930Z,99.99
2017-05-31T03:32:13.839Z,99.99
2017-05-31T03:32:54.735Z,99.99
2017-05-31T03:33:35.625Z,99.99
2017-05-31T03:34:16.520Z,99.99
2017-05-31T03:34:57.411Z,99.99
2017-05-31T03:36:56.244Z,99.99
2017-05-31T03:37:37.134Z,99.99
2017-05-31T03:38:18.022Z,99.99
2017-05-31T03:38:58.905Z,99.99
2017-05-31T03:39:39.795Z,99.99
2017-05-31T03:40:20.718Z,99.99
2017-05-31T03:41:01.621Z,99.99
2017-05-31T03:41:42.517Z,99.99
2017-05-31T03:42:23.396Z,99.99
2017-05-31T03:43:04.293Z,99.99
2017-05-31T03:43:45.190Z,99.99
2017-05-31T03:44:26.072Z,99.99
2017-05-31T03:45:06.994Z,99.99
2017-05-31T03:45:47.934Z,99.99
2017-05-31T03:46:28.796Z,99.99
2017-05-31T03:47:09.679Z,99.99
2017-05-31T03:47:50.557Z,99.99
2017-05-31T03:48:31.447Z,99.99
2017-05-31T03:49:12.353Z,99.99
2017-05-31T03:49:53.233Z,99.99
2017-05-31T03:50:34.117Z,99.99
2017-05-31T03:51:15.008Z,99.99
2017-05-31T03:51:55.902Z,99.99
2017-05-31T03:52:36.771Z,99.99
2017-05-31T03:53:17.668Z,99.99
2017-05-31T03:53:58.567Z,99.78
2017-05-31T03:54:39.471Z,99.68
2017-05-31T03:55:20.359Z,99.87
2017-05-31T03:56:01.291Z,99.99
2017-05-31T03:56:42.174Z,99.99
2017-05-31T03:57:23.069Z,99.99
2017-05-31T03:58:03.963Z,99.99
2017-05-31T03:58:44.869Z,99.99
2017-05-31T03:59:25.749Z,99.78
2017-05-31T04:00:06.669Z,99.68
2017-05-31T04:00:47.527Z,99.58
2017-05-31T04:01:28.430Z,99.2
2017-05-31T04:02:09.320Z,99.58
2017-05-31T04:02:50.226Z,99.78
2017-05-31T04:03:31.114Z,99.15
2017-05-31T04:04:12.009Z,99.78
2017-05-31T04:04:52.920Z,99.78
2017-05-31T04:05:33.799Z,99.68
2017-05-31T04:07:27.624Z,99.99
2017-05-31T04:08:08.511Z,99.49
2017-05-31T04:08:49.519Z,98.91
2017-05-31T04:09:30.414Z,99.01
2017-05-31T04:10:11.298Z,98.05
2017-05-31T04:10:52.196Z,97.57
2017-05-31T04:11:33.106Z,98.53
2017-05-31T04:12:13.991Z,99.4
2017-05-31T04:12:55.036Z,98.91
2017-05-31T04:13:35.917Z,99.58
2017-05-31T04:14:16.801Z,99.87
2017-05-31T04:14:57.714Z,98.96
2017-05-31T04:15:38.613Z,98.91
2017-05-31T04:16:19.510Z,98.82
2017-05-31T04:17:00.390Z,97.76
2017-05-31T04:17:41.258Z,97.76
2017-05-31T04:18:22.148Z,97.66
2017-05-31T04:19:03.056Z,98.34
2017-05-31T04:19:43.944Z,98.34
2017-05-31T04:20:24.804Z,97.66
2017-05-31T04:21:05.715Z,97.66
2017-05-31T04:21:46.604Z,97.47
2017-05-31T04:22:27.508Z,96.32
2017-05-31T04:23:08.402Z,95.94
2017-05-31T04:23:49.292Z,95.94
2017-05-31T04:24:30.190Z,96.99
2017-05-31T04:25:11.144Z,97.42
2017-05-31T04:25:52.019Z,97.71
2017-05-31T04:26:32.913Z,96.89
2017-05-31T04:27:13.824Z,97.09
2017-05-31T04:27:54.712Z,96.42
2017-05-31T04:28:35.603Z,96.13
2017-05-31T04:29:18.064Z,95.55
2017-05-31T04:29:58.956Z,95.07
2017-05-31T04:30:39.841Z,95.84
2017-05-31T04:31:20.742Z,95.75
2017-05-31T04:32:01.628Z,96.42
2017-05-31T04:32:42.509Z,95.94
2017-05-31T04:33:23.407Z,95.55
2017-05-31T04:34:04.294Z,96.13
2017-05-31T04:34:45.183Z,95.84
2017-05-31T04:35:26.081Z,96.32
2017-05-31T04:36:06.971Z,96.94
2017-05-31T04:36:47.861Z,96.99
2017-05-31T04:37:28.759Z,96.99
2017-05-31T04:38:09.634Z,96.32
2017-05-31T04:38:50.515Z,95.36
2017-05-31T04:39:31.404Z,94.59
2017-05-31T04:40:12.319Z,94.69
2017-05-31T04:40:53.181Z,94.88
2017-05-31T04:41:34.071Z,95.26
2017-05-31T04:42:14.981Z,95.07
2017-05-31T04:42:55.882Z,95.75
2017-05-31T04:43:36.733Z,96.22
2017-05-31T04:44:17.653Z,96.18
2017-05-31T04:44:58.546Z,96.18
2017-05-31T04:45:39.419Z,95.07
2017-05-31T04:46:20.317Z,94.88
2017-05-31T04:47:01.217Z,94.78
2017-05-31T04:47:42.131Z,95.07
2017-05-31T04:48:23.019Z,94.69
2017-05-31T04:49:03.904Z,93.82
2017-05-31T04:49:44.790Z,95.03
2017-05-31T04:50:25.684Z,95.7
2017-05-31T04:51:06.575Z,96.27
2017-05-31T04:51:47.460Z,95.89
2017-05-31T04:52:28.353Z,96.27
2017-05-31T04:53:09.234Z,95.89
2017-05-31T04:53:50.189Z,95.21
2017-05-31T04:54:31.087Z,94.4
2017-05-31T04:55:11.980Z,93.92
2017-05-31T04:55:52.882Z,93.44
2017-05-31T04:56:35.571Z,93.63
2017-05-31T04:57:16.470Z,95.03
2017-05-31T04:57:57.359Z,94.4
2017-05-31T04:58:38.317Z,94.21
2017-05-31T04:59:19.201Z,94.4
2017-05-31T05:00:00.107Z,94.45
2017-05-31T05:00:40.991Z,94.54
2017-05-31T05:01:21.877Z,94.07
2017-05-31T05:02:02.762Z,93.92
2017-05-31T05:02:43.635Z,93.82
2017-05-31T05:03:24.525Z,93.82
2017-05-31T05:04:05.424Z,95.12
2017-05-31T05:04:46.321Z,94.83
2017-05-31T05:05:27.202Z,94.83
2017-05-31T05:06:08.090Z,95.5
2017-05-31T05:06:48.992Z,95.21
2017-05-31T05:07:29.929Z,94.93
2017-05-31T05:08:10.835Z,95.12
2017-05-31T05:08:51.761Z,95.21
2017-05-31T05:09:32.663Z,94.93
2017-05-31T05:10:13.752Z,94.83
2017-05-31T05:11:41.901Z,94.93
2017-05-31T05:12:22.845Z,94.45
2017-05-31T05:13:03.747Z,94.11
2017-05-31T05:13:44.664Z,93.44
2017-05-31T05:14:25.560Z,93.05
2017-05-31T05:15:06.447Z,92.57
2017-05-31T05:15:47.347Z,92
2017-05-31T05:16:28.264Z,92.67
2017-05-31T05:17:09.181Z,93.15
2017-05-31T05:17:50.066Z,92.57
2017-05-31T05:18:30.972Z,92.48
2017-05-31T05:19:11.914Z,92.72
2017-05-31T05:19:52.778Z,92.38
2017-05-31T05:20:33.677Z,91.61
2017-05-31T05:21:14.557Z,91.42
2017-05-31T05:21:55.498Z,91.71
2017-05-31T05:22:36.394Z,92.1
2017-05-31T05:23:17.281Z,91.9
2017-05-31T05:23:58.194Z,92
2017-05-31T05:24:39.126Z,92.67
2017-05-31T05:25:20.298Z,92.53
2017-05-31T05:26:01.186Z,92.19
2017-05-31T05:26:42.102Z,92.1
2017-05-31T05:27:23.003Z,91.61
2017-05-31T05:28:03.901Z,91.81
2017-05-31T05:28:44.798Z,91.23
2017-05-31T05:29:25.721Z,91.52
2017-05-31T05:30:06.632Z,90.03
2017-05-31T05:30:47.525Z,89.74
2017-05-31T05:31:28.429Z,90.7
2017-05-31T05:32:09.379Z,90.75
2017-05-31T05:32:50.285Z,90.75
2017-05-31T05:33:31.171Z,90.84
2017-05-31T05:34:12.074Z,91.42
2017-05-31T05:34:52.970Z,90.84
2017-05-31T05:35:33.864Z,90.75
2017-05-31T05:36:14.769Z,91.33
2017-05-31T05:36:55.661Z,90.66
2017-05-31T05:37:36.987Z,91.52
2017-05-31T05:38:17.693Z,91.33
2017-05-31T05:38:58.587Z,91.52
2017-05-31T05:39:39.532Z,91.52
2017-05-31T05:40:20.434Z,91.13
2017-05-31T05:41:01.329Z,91.04
2017-05-31T05:41:42.222Z,91.23
2017-05-31T05:42:23.109Z,91.23
2017-05-31T05:43:04.001Z,91.23
2017-05-31T05:43:44.938Z,90.94
2017-05-31T05:44:25.863Z,90.08
2017-05-31T05:45:06.753Z,91.04
2017-05-31T05:45:47.647Z,90.84
2017-05-31T05:46:28.564Z,90.56
2017-05-31T05:47:09.451Z,90.66
2017-05-31T05:47:50.359Z,90.75
2017-05-31T05:48:31.255Z,90.94
2017-05-31T05:49:12.151Z,90.08
2017-05-31T05:49:53.071Z,90.84
2017-05-31T05:50:33.960Z,90.94
2017-05-31T05:51:14.852Z,90.08
2017-05-31T05:51:55.744Z,89.26
2017-05-31T05:52:36.671Z,89.64
2017-05-31T05:53:17.560Z,89.6
2017-05-31T05:53:58.474Z,90.17
2017-05-31T05:54:39.353Z,89.6
2017-05-31T05:55:20.253Z,89.36
2017-05-31T05:56:01.151Z,88.59
2017-05-31T05:56:42.047Z,89.12
2017-05-31T05:57:22.941Z,88.83
2017-05-31T05:58:03.841Z,88.73
2017-05-31T05:58:44.736Z,89.6
2017-05-31T05:59:25.630Z,90.08
2017-05-31T06:00:06.539Z,90.84
2017-05-31T06:00:47.430Z,90.37
2017-05-31T06:01:28.325Z,89.79
2017-05-31T06:02:09.220Z,89.89
2017-05-31T06:02:50.115Z,88.97
2017-05-31T06:03:31.008Z,89.16
2017-05-31T06:04:11.902Z,88.97
2017-05-31T06:04:52.794Z,88.39
2017-05-31T06:05:33.688Z,87.86
2017-05-31T06:06:14.592Z,86.61
2017-05-31T06:06:55.493Z,85.55
2017-05-31T06:07:36.380Z,84.54
2017-05-31T06:08:17.266Z,84.5
2017-05-31T06:08:58.146Z,83.86
2017-05-31T06:09:39.051Z,82.52
2017-05-31T06:10:19.971Z,82.42
2017-05-31T06:11:00.861Z,82.71
2017-05-31T06:11:41.756Z,83.48
2017-05-31T06:12:22.677Z,84.78
2017-05-31T06:13:03.560Z,84.59
2017-05-31T06:13:44.507Z,83.09
2017-05-31T06:14:25.436Z,82.85
2017-05-31T06:16:19.019Z,82.17
2017-05-31T06:17:00.009Z,80.23
2017-05-31T06:17:41.036Z,80.35
2017-05-31T06:18:21.979Z,80.19
2017-05-31T06:19:02.851Z,77.73
2017-05-31T06:19:43.752Z,76.03
2017-05-31T06:20:24.647Z,75.61
2017-05-31T06:21:05.543Z,75.93
2017-05-31T06:22:33.670Z,75.55
2017-05-31T06:23:14.565Z,75.32
2017-05-31T06:23:55.464Z,78.03
2017-05-31T06:24:36.429Z,80.3
2017-05-31T06:25:17.303Z,80.79
2017-05-31T06:25:58.216Z,79.86
2017-05-31T06:26:39.194Z,79.35
2017-05-31T06:27:20.127Z,79.67
2017-05-31T06:28:01.028Z,79.9
2017-05-31T06:28:41.935Z,76.86
2017-05-31T06:29:22.823Z,74.88
2017-05-31T06:30:03.717Z,76.06
2017-05-31T06:30:44.628Z,77.4
2017-05-31T06:31:25.506Z,75.99
2017-05-31T06:32:06.401Z,77.01
2017-05-31T06:32:47.307Z,78.33
2017-05-31T06:33:28.214Z,77.78
2017-05-31T06:34:09.114Z,77.65
2017-05-31T06:34:50.012Z,79.73
2017-05-31T06:35:30.919Z,81.61
2017-05-31T06:36:11.817Z,82.29
2017-05-31T06:36:52.710Z,83.78
2017-05-31T06:37:33.615Z,84.26
2017-05-31T06:38:14.505Z,84.64
2017-05-31T06:38:55.415Z,84.74
2017-05-31T06:39:36.449Z,84.94
2017-05-31T06:40:17.284Z,83.15
2017-05-31T06:40:58.209Z,82.57
2017-05-31T06:41:39.088Z,81.17
2017-05-31T06:42:19.984Z,79.96
2017-05-31T06:43:00.888Z,79.43
2017-05-31T06:43:41.785Z,77.5
2017-05-31T06:44:22.706Z,76.15
2017-05-31T06:45:03.608Z,75.67
2017-05-31T06:45:44.553Z,76.44
2017-05-31T06:46:25.451Z,76.09
2017-05-31T06:47:06.376Z,75.13
2017-05-31T06:47:47.273Z,74.36
2017-05-31T06:48:28.177Z,74.07
2017-05-31T06:49:09.071Z,75.76
2017-05-31T06:49:49.964Z,75.09
2017-05-31T06:50:30.859Z,75.03
2017-05-31T06:51:11.736Z,74.55
2017-05-31T06:51:52.629Z,74.58
2017-05-31T06:52:33.525Z,71.83
2017-05-31T06:53:14.434Z,71.54
2017-05-31T06:53:55.334Z,68.81
2017-05-31T06:54:36.218Z,65.95
2017-05-31T06:55:17.130Z,64.53
2017-05-31T06:55:58.030Z,63.02
2017-05-31T06:56:38.930Z,61.66
2017-05-31T06:57:19.831Z,62.31
2017-05-31T06:58:00.776Z,62.82
2017-05-31T06:58:41.679Z,63.76
2017-05-31T06:59:22.578Z,64.98
2017-05-31T07:00:03.476Z,65.14
2017-05-31T07:00:44.378Z,65.4
2017-05-31T07:01:25.284Z,63.14
2017-05-31T07:02:06.174Z,59.01
2017-05-31T07:02:47.103Z,61.05
2017-05-31T07:03:28.023Z,65.08
2017-05-31T07:04:08.878Z,67.23
2017-05-31T07:04:49.786Z,65.27
2017-05-31T07:05:30.686Z,62.86
2017-05-31T07:06:11.566Z,62.31
2017-05-31T07:06:52.456Z,62.73
2017-05-31T07:07:33.356Z,60.66
2017-05-31T07:09:27.019Z,57.17
2017-05-31T07:10:07.892Z,56.39
2017-05-31T07:10:48.828Z,54.55
2017-05-31T07:11:29.726Z,55.04
2017-05-31T07:12:10.632Z,56.04
2017-05-31T07:12:51.532Z,55.88
2017-05-31T07:13:32.429Z,55.04
2017-05-31T07:14:13.325Z,54.38
2017-05-31T07:14:54.234Z,55.4
2017-05-31T07:15:35.138Z,59.18
2017-05-31T07:16:16.043Z,58.7
2017-05-31T07:16:56.958Z,59.44
2017-05-31T07:17:37.871Z,59.15
2017-05-31T07:18:18.777Z,60.93
2017-05-31T07:18:59.653Z,61.41
2017-05-31T07:19:40.570Z,64.92
2017-05-31T07:20:21.473Z,64.92
2017-05-31T07:21:02.344Z,64.08
2017-05-31T07:21:43.288Z,64.28
2017-05-31T07:22:24.201Z,63.7
2017-05-31T07:23:05.112Z,64.69
2017-05-31T07:23:45.984Z,67.55
2017-05-31T07:24:26.894Z,69.93
2017-05-31T07:25:07.780Z,72.74
2017-05-31T07:25:48.689Z,73.32
2017-05-31T07:26:29.591Z,73.61
2017-05-31T07:27:10.485Z,74.38
2017-05-31T07:27:51.383Z,74.76
2017-05-31T07:28:32.279Z,75.79
2017-05-31T07:29:13.194Z,76.65
2017-05-31T07:29:54.095Z,76.56
2017-05-31T07:30:35.002Z,75.92
2017-05-31T07:31:15.898Z,75.69
2017-05-31T07:31:56.796Z,75.88
2017-05-31T07:32:37.682Z,75.69
2017-05-31T07:33:18.575Z,75.44
2017-05-31T07:33:59.475Z,75.21
2017-05-31T07:34:40.382Z,75.63
2017-05-31T07:35:21.285Z,75.15
2017-05-31T07:36:02.193Z,74.57
2017-05-31T07:36:43.078Z,73.71
2017-05-31T07:37:23.983Z,73.61
2017-05-31T07:38:04.889Z,73.22
2017-05-31T07:38:45.786Z,73.51
2017-05-31T07:39:26.684Z,74.92
2017-05-31T07:40:07.583Z,75.27
2017-05-31T07:40:48.592Z,75.46
2017-05-31T07:41:29.466Z,75.69
2017-05-31T07:42:10.351Z,74.73
2017-05-31T07:42:51.242Z,72.94
2017-05-31T07:43:32.146Z,71.97
2017-05-31T07:44:13.051Z,71.97
2017-05-31T07:44:53.961Z,71.24
2017-05-31T07:45:34.855Z,71.04
2017-05-31T07:46:15.764Z,70.12
2017-05-31T07:46:56.666Z,69.64
2017-05-31T07:47:37.557Z,69.6
2017-05-31T07:48:18.460Z,69.73
2017-05-31T07:48:59.383Z,69.54
2017-05-31T07:49:40.297Z,70.47
2017-05-31T07:50:21.187Z,69.64
2017-05-31T07:51:02.121Z,68.68
2017-05-31T07:51:43.011Z,68.04
2017-05-31T07:52:23.923Z,68.58
2017-05-31T07:53:04.882Z,68.52
2017-05-31T07:53:45.733Z,67.55
2017-05-31T07:54:26.616Z,68.29
2017-05-31T07:55:07.503Z,68.52
2017-05-31T07:55:48.422Z,67.16
2017-05-31T07:56:29.307Z,65.98
2017-05-31T07:57:10.196Z,65.37
2017-05-31T07:57:51.098Z,64.63
2017-05-31T07:58:31.993Z,62.57
2017-05-31T07:59:12.893Z,60.47
2017-05-31T07:59:53.783Z,58.86
2017-05-31T08:00:34.683Z,59.89
2017-05-31T08:01:15.590Z,59.53
2017-05-31T08:01:56.492Z,57.6
2017-05-31T08:02:37.409Z,57.31
2017-05-31T08:03:18.308Z,57.28
2017-05-31T08:03:59.213Z,55.36
2017-05-31T08:04:40.098Z,55.31
2017-05-31T08:05:21.040Z,58.25
2017-05-31T08:06:01.913Z,59.64
2017-05-31T08:06:42.812Z,63.12
2017-05-31T08:07:23.752Z,65.69
2017-05-31T08:08:04.667Z,64.79
2017-05-31T08:08:45.567Z,62.6
2017-05-31T08:09:26.469Z,61.57
2017-05-31T08:10:07.368Z,60.61
2017-05-31T08:10:48.258Z,60.25
2017-05-31T08:11:29.199Z,61.19
2017-05-31T08:12:10.097Z,59.96
2017-05-31T08:12:50.999Z,59.86
2017-05-31T08:13:31.890Z,57.99
2017-05-31T08:14:12.811Z,56.18
2017-05-31T08:14:53.698Z,55.7
2017-05-31T08:15:34.611Z,55.73
2017-05-31T08:16:15.516Z,55.73
2017-05-31T08:16:56.429Z,54.75
2017-05-31T08:17:37.324Z,54.57
2017-05-31T08:18:18.207Z,56.67
2017-05-31T08:18:59.134Z,57.57
2017-05-31T08:19:40.035Z,59.74
2017-05-31T08:20:20.942Z,61.22
2017-05-31T08:21:01.852Z,59.31
2017-05-31T08:21:42.770Z,59.77
2017-05-31T08:22:23.667Z,59.67
2017-05-31T08:23:04.580Z,60.44
2017-05-31T08:23:45.529Z,61.19
2017-05-31T08:24:26.414Z,60.22
2017-05-31T08:25:07.313Z,60.41
2017-05-31T08:25:48.212Z,60.99
2017-05-31T08:26:29.120Z,60.89
2017-05-31T08:27:10.019Z,62.18
2017-05-31T08:27:50.907Z,62.22
2017-05-31T08:28:31.821Z,62.28
2017-05-31T08:29:12.730Z,62.41
2017-05-31T08:29:53.650Z,63.44
2017-05-31T08:30:34.549Z,63.09
2017-05-31T08:31:15.468Z,62.6
2017-05-31T08:31:56.356Z,62.05
2017-05-31T08:32:37.242Z,62.51
2017-05-31T08:33:18.145Z,63.98
2017-05-31T08:33:59.059Z,63.98
2017-05-31T08:34:39.925Z,63.92
2017-05-31T08:35:20.875Z,64.02
2017-05-31T08:36:01.784Z,63.73
2017-05-31T08:36:42.675Z,64.76
2017-05-31T08:37:23.567Z,65.63
2017-05-31T08:38:04.469Z,64.76
2017-05-31T08:38:45.366Z,63.47
2017-05-31T08:39:26.290Z,62.51
2017-05-31T08:40:07.187Z,62.34
2017-05-31T08:40:48.097Z,58.93
2017-05-31T08:41:29.011Z,59.67
2017-05-31T08:42:09.918Z,59.86
2017-05-31T08:42:50.820Z,59.48
2017-05-31T08:43:31.701Z,58.35
2017-05-31T08:44:12.604Z,59.74
2017-05-31T08:44:53.556Z,60.8
2017-05-31T08:45:34.394Z,60.73
2017-05-31T08:46:15.302Z,60.89
2017-05-31T08:46:56.229Z,61.54
2017-05-31T08:47:37.121Z,62.22
2017-05-31T08:48:18.025Z,61.38
2017-05-31T08:48:58.945Z,59.48
2017-05-31T08:49:39.845Z,61.35
2017-05-31T08:50:20.747Z,62.02
2017-05-31T08:51:01.663Z,60.99
2017-05-31T08:51:42.573Z,59.74
2017-05-31T08:52:23.512Z,58.87
2017-05-31T08:53:04.374Z,59.09
2017-05-31T08:53:45.269Z,59.35
2017-05-31T08:54:26.158Z,60.51
2017-05-31T08:55:07.059Z,60.31
2017-05-31T08:55:47.962Z,59.64